CheckWX is a tool to help pilots better visualize weather data.  It is not intended as a substitute for an official pre-flight weather briefing.

05:28:31 UTC

KAFF METAR
Usaf Academy Afld Airport
Colorado Springs, Colorado, USA
Current

31 mins ago

KAFF 200458Z AUTO 35006KT 10SM BKN050 M13/M15 A2962 RMK AO2 SLP119 T11331155
Observed
Feb-20 @ 04:58 UTC
Wind
  • 350° at 6 KTS
Visibility
16,093 meters
Flight Rules
VFR
Cloud Levels
  • Broken at 5,000' AGL
Temperature
-13°C / 9°F
Dewpoint
-16°C / 3°F
Humidity
78%
Altimeter
29.62" Hg
Pressure
1011.9 hPa
Previous

2 hours ago

KAFF 200358Z AUTO 34006KT 10SM SCT027 M11/M14 A2963 RMK AO2 UPE16SNB16E52 SLP117 P0000 T11081136
Observed
Feb-20 @ 03:58 UTC
Wind
  • 340° at 6 KTS
Visibility
16,093 meters
Flight Rules
VFR
Cloud Levels
  • Scattered at 2,700' AGL
Temperature
-11°C / 12°F
Dewpoint
-14°C / 7°F
Humidity
79%
Altimeter
29.63" Hg
Pressure
1011.7 hPa
Current Rain
0.01"
Previous

2 hours ago

KAFF 200352Z AUTO 34007KT 10SM BKN028 M10/M13 A2963 RMK AO2 UPE16SNB16E52 BKN V OVC SLP117
Observed
Feb-20 @ 03:52 UTC
Wind
  • 340° at 7 KTS
Visibility
16,093 meters
Flight Rules
MVFR
Cloud Levels
  • Broken at 2,800' AGL
Temperature
-10°C / 14°F
Dewpoint
-13°C / 9°F
Humidity
79%
Altimeter
29.63" Hg
Pressure
1011.7 hPa